createdAt,value
2018-08-29T00:00:21.405Z,23.40
2018-08-29T00:00:53.626Z,23.30
2018-08-29T00:01:25.886Z,23.30
2018-08-29T00:01:57.998Z,23.30
2018-08-29T00:02:30.135Z,23.30
2018-08-29T00:03:02.345Z,23.30
2018-08-29T00:03:34.466Z,23.40
2018-08-29T00:04:06.664Z,23.40
2018-08-29T00:04:38.936Z,23.30
2018-08-29T00:05:11.111Z,23.20
2018-08-29T00:05:43.252Z,23.20
2018-08-29T00:06:15.413Z,23.20
2018-08-29T00:06:47.586Z,23.10
2018-08-29T00:07:19.695Z,23.10
2018-08-29T00:07:51.827Z,23.00
2018-08-29T00:08:23.925Z,22.90
2018-08-29T00:08:56.050Z,22.90
2018-08-29T00:09:28.253Z,22.80
2018-08-29T00:10:00.458Z,22.80
2018-08-29T00:10:32.604Z,22.90
2018-08-29T00:11:04.798Z,22.80
2018-08-29T00:11:36.864Z,22.90
2018-08-29T00:12:09.010Z,22.90
2018-08-29T00:12:41.100Z,23.00
2018-08-29T00:13:13.337Z,23.00
2018-08-29T00:13:45.488Z,22.90
2018-08-29T00:14:17.556Z,22.80
2018-08-29T00:14:49.637Z,22.80
2018-08-29T00:15:21.776Z,22.70
2018-08-29T00:15:54.003Z,22.70
2018-08-29T00:16:26.298Z,22.80
2018-08-29T00:16:58.512Z,22.70
2018-08-29T00:17:30.706Z,22.80
2018-08-29T00:18:02.784Z,22.80
2018-08-29T00:18:35.042Z,22.70
2018-08-29T00:19:07.139Z,22.70
2018-08-29T00:19:39.241Z,22.70
2018-08-29T00:20:11.485Z,22.70
2018-08-29T00:20:43.618Z,22.60
2018-08-29T00:21:15.721Z,22.70
2018-08-29T00:21:47.810Z,22.60
2018-08-29T00:22:20.053Z,22.60
2018-08-29T00:22:52.522Z,22.60
2018-08-29T00:23:24.609Z,22.60
2018-08-29T00:23:56.781Z,22.60
2018-08-29T00:24:28.894Z,22.60
2018-08-29T00:25:00.991Z,22.60
2018-08-29T00:25:33.324Z,22.60
2018-08-29T00:26:05.411Z,22.60
2018-08-29T00:26:37.503Z,22.60
2018-08-29T00:27:09.646Z,22.60
2018-08-29T00:27:41.757Z,22.60
2018-08-29T00:28:13.888Z,22.60
2018-08-29T00:28:46.001Z,22.60
2018-08-29T00:29:18.091Z,22.60
2018-08-29T00:29:50.274Z,22.60
2018-08-29T00:30:22.401Z,22.60
2018-08-29T00:30:54.498Z,22.60
2018-08-29T00:31:26.813Z,22.70
2018-08-29T00:31:58.845Z,22.80
2018-08-29T00:32:30.984Z,22.70
2018-08-29T00:33:03.275Z,22.80
2018-08-29T00:33:35.432Z,22.90
2018-08-29T00:34:07.647Z,22.80
2018-08-29T00:34:39.733Z,22.90
2018-08-29T00:35:11.813Z,23.00
2018-08-29T00:35:44.147Z,22.90
2018-08-29T00:36:16.234Z,22.90
2018-08-29T00:36:48.411Z,22.90
2018-08-29T00:37:20.506Z,22.80
2018-08-29T00:37:52.728Z,22.80
2018-08-29T00:38:24.851Z,22.80
2018-08-29T00:38:56.986Z,22.70
2018-08-29T00:39:29.037Z,22.70
2018-08-29T00:40:01.183Z,22.70
2018-08-29T00:40:33.443Z,22.60
2018-08-29T00:41:05.514Z,22.60
2018-08-29T00:41:37.646Z,22.60
2018-08-29T00:42:09.887Z,22.60
2018-08-29T00:42:41.971Z,22.60
2018-08-29T00:43:14.117Z,22.60
2018-08-29T00:43:46.257Z,22.50
2018-08-29T00:44:18.340Z,22.50
2018-08-29T00:44:50.445Z,22.50
2018-08-29T00:45:22.574Z,22.60
2018-08-29T00:45:54.828Z,22.60
2018-08-29T00:46:26.966Z,22.50
2018-08-29T00:46:59.046Z,22.50
2018-08-29T00:47:31.293Z,22.50
2018-08-29T00:48:03.392Z,22.60
2018-08-29T00:48:35.593Z,22.50
2018-08-29T00:49:07.725Z,22.50
2018-08-29T00:49:39.849Z,22.50
2018-08-29T00:50:11.909Z,22.50
2018-08-29T00:50:44.038Z,22.50
2018-08-29T00:51:16.147Z,22.40
2018-08-29T00:51:48.221Z,22.40
2018-08-29T00:52:20.319Z,22.40
2018-08-29T00:52:52.443Z,22.40
2018-08-29T00:53:24.506Z,22.40
2018-08-29T00:53:56.721Z,22.40
2018-08-29T00:54:28.809Z,22.40
2018-08-29T00:55:01.003Z,22.40
2018-08-29T00:55:33.294Z,22.40
2018-08-29T00:56:05.554Z,22.40
2018-08-29T00:56:37.659Z,22.40
2018-08-29T00:57:09.749Z,22.40
2018-08-29T00:57:42.109Z,22.40
2018-08-29T00:58:14.358Z,22.40
2018-08-29T00:58:46.615Z,22.40
2018-08-29T00:59:18.701Z,22.40
2018-08-29T00:59:50.838Z,22.40
2018-08-29T01:00:23.131Z,22.40
2018-08-29T01:00:55.487Z,22.50
2018-08-29T01:01:27.576Z,22.40
2018-08-29T01:01:59.753Z,22.50
2018-08-29T01:02:31.867Z,22.50
2018-08-29T01:03:04.060Z,22.50
2018-08-29T01:03:36.161Z,22.50
2018-08-29T01:04:08.515Z,22.50
2018-08-29T01:04:40.767Z,22.50
2018-08-29T01:05:12.924Z,22.50
2018-08-29T01:05:45.109Z,22.50
2018-08-29T01:06:17.290Z,22.40
2018-08-29T01:06:49.348Z,22.40
2018-08-29T01:07:21.489Z,22.40
2018-08-29T01:07:53.634Z,22.50
2018-08-29T01:08:25.809Z,22.40
2018-08-29T01:08:57.926Z,22.40
2018-08-29T01:09:30.109Z,22.40
2018-08-29T01:10:02.271Z,22.40
2018-08-29T01:10:34.424Z,22.50
2018-08-29T01:11:06.685Z,22.50
2018-08-29T01:11:38.874Z,22.50
2018-08-29T01:12:10.981Z,22.40
2018-08-29T01:12:43.103Z,22.40
2018-08-29T01:13:15.241Z,22.40
2018-08-29T01:13:47.457Z,22.40
2018-08-29T01:14:19.676Z,22.40
2018-08-29T01:14:51.762Z,22.30
2018-08-29T01:15:24.017Z,22.30
2018-08-29T01:15:56.139Z,22.30
2018-08-29T01:16:28.240Z,22.30
2018-08-29T01:17:00.318Z,22.30
2018-08-29T01:17:32.433Z,22.30
2018-08-29T01:18:04.511Z,22.30
2018-08-29T01:18:36.580Z,22.30
2018-08-29T01:19:08.692Z,22.30
2018-08-29T01:19:40.754Z,22.40
2018-08-29T01:20:12.872Z,22.40
2018-08-29T01:20:44.953Z,22.30
2018-08-29T01:21:17.036Z,22.40
2018-08-29T01:21:49.145Z,22.30
2018-08-29T01:22:21.222Z,22.30
2018-08-29T01:22:53.344Z,22.30
2018-08-29T01:23:25.561Z,22.30
2018-08-29T01:23:57.680Z,22.30
2018-08-29T01:24:29.805Z,22.30
2018-08-29T01:25:01.918Z,22.30
2018-08-29T01:25:33.963Z,22.30
2018-08-29T01:26:06.180Z,22.20
2018-08-29T01:26:38.413Z,22.20
2018-08-29T01:27:10.533Z,22.20
2018-08-29T01:27:42.658Z,22.10
2018-08-29T01:28:14.765Z,22.10
2018-08-29T01:28:46.970Z,22.10
2018-08-29T01:29:19.301Z,22.10
2018-08-29T01:29:51.569Z,22.00
2018-08-29T01:30:23.794Z,22.00
2018-08-29T01:30:55.940Z,22.00
2018-08-29T01:31:28.105Z,22.00
2018-08-29T01:32:00.219Z,22.00
2018-08-29T01:32:32.347Z,22.10
2018-08-29T01:33:04.463Z,22.10
2018-08-29T01:33:36.601Z,22.10
2018-08-29T01:34:08.717Z,22.10
2018-08-29T01:34:40.873Z,22.10
2018-08-29T01:35:12.939Z,22.10
2018-08-29T01:35:45.132Z,22.10
2018-08-29T01:36:17.193Z,22.20
2018-08-29T01:36:49.310Z,22.20
2018-08-29T01:37:21.487Z,22.20
2018-08-29T01:37:53.602Z,22.20
2018-08-29T01:38:25.720Z,22.20
2018-08-29T01:38:57.819Z,22.20
2018-08-29T01:39:29.911Z,22.20
2018-08-29T01:40:02.113Z,22.20
2018-08-29T01:40:34.260Z,22.20
2018-08-29T01:41:06.335Z,22.20
2018-08-29T01:41:38.431Z,22.20
2018-08-29T01:42:10.666Z,22.30
2018-08-29T01:42:42.805Z,22.30
2018-08-29T01:43:15.392Z,22.30
2018-08-29T01:43:47.558Z,22.30
2018-08-29T01:44:19.805Z,22.30
2018-08-29T01:44:52.010Z,22.30
2018-08-29T01:45:24.161Z,22.30
2018-08-29T01:45:56.304Z,22.20
2018-08-29T01:46:28.401Z,22.20
2018-08-29T01:47:00.669Z,22.20
2018-08-29T01:47:32.816Z,22.20
2018-08-29T01:48:04.929Z,22.10
2018-08-29T01:48:37.090Z,22.10
2018-08-29T01:49:09.244Z,22.10
2018-08-29T01:49:41.460Z,22.10
2018-08-29T01:50:13.582Z,22.10
2018-08-29T01:50:45.809Z,22.10
2018-08-29T01:51:17.914Z,22.20
2018-08-29T01:51:50.052Z,22.20
2018-08-29T01:52:22.194Z,22.20
2018-08-29T01:52:54.366Z,22.20
2018-08-29T01:53:26.449Z,22.10
2018-08-29T01:53:58.550Z,22.10
2018-08-29T01:54:30.749Z,22.20
2018-08-29T01:55:02.977Z,22.20
2018-08-29T01:55:35.030Z,22.20
2018-08-29T01:56:07.139Z,22.20
2018-08-29T01:56:39.402Z,22.20
2018-08-29T01:57:11.654Z,22.20
2018-08-29T01:57:43.920Z,22.30
2018-08-29T01:58:16.011Z,22.30
2018-08-29T01:58:48.251Z,22.30
2018-08-29T01:59:20.510Z,22.30
2018-08-29T01:59:52.739Z,22.30
2018-08-29T02:00:24.885Z,22.30
2018-08-29T02:00:56.966Z,22.30
2018-08-29T02:01:29.046Z,22.30
2018-08-29T02:02:01.126Z,22.40
2018-08-29T02:02:33.543Z,22.60
2018-08-29T02:03:05.914Z,22.70
2018-08-29T02:03:38.007Z,22.80
2018-08-29T02:04:10.382Z,22.90
2018-08-29T02:04:42.467Z,23.00
2018-08-29T02:05:14.585Z,23.00
2018-08-29T02:05:46.774Z,22.90
2018-08-29T02:06:18.866Z,22.80
2018-08-29T02:06:51.090Z,22.70
2018-08-29T02:07:23.154Z,22.70
2018-08-29T02:07:55.267Z,22.60
2018-08-29T02:08:27.414Z,22.60
2018-08-29T02:08:59.625Z,22.50
2018-08-29T02:09:31.708Z,22.50
2018-08-29T02:10:03.850Z,22.40
2018-08-29T02:10:35.949Z,22.40
2018-08-29T02:11:08.056Z,22.30
2018-08-29T02:11:40.132Z,22.30
2018-08-29T02:12:12.204Z,22.30
2018-08-29T02:12:44.285Z,22.40
2018-08-29T02:13:16.393Z,22.40
2018-08-29T02:13:48.480Z,22.40
2018-08-29T02:14:20.624Z,22.40
2018-08-29T02:14:52.802Z,22.30
2018-08-29T02:15:25.025Z,22.30
2018-08-29T02:15:57.249Z,22.30
2018-08-29T02:16:29.449Z,22.30
2018-08-29T02:17:01.757Z,22.30
2018-08-29T02:17:33.845Z,22.20
2018-08-29T02:18:05.940Z,22.30
2018-08-29T02:18:38.245Z,22.20
2018-08-29T02:19:10.486Z,22.20
2018-08-29T02:19:42.626Z,22.20
2018-08-29T02:20:14.721Z,22.20
2018-08-29T02:20:46.948Z,22.20
2018-08-29T02:21:19.153Z,22.10
2018-08-29T02:21:51.366Z,22.20
2018-08-29T02:22:23.456Z,22.10
2018-08-29T02:22:55.569Z,22.10
2018-08-29T02:23:27.761Z,22.10
2018-08-29T02:23:59.833Z,22.00
2018-08-29T02:24:32.130Z,22.00
2018-08-29T02:25:04.232Z,22.00
2018-08-29T02:25:36.333Z,22.00
2018-08-29T02:26:08.439Z,22.00
2018-08-29T02:26:40.540Z,22.00
2018-08-29T02:27:12.634Z,22.00
2018-08-29T02:27:44.767Z,22.00
2018-08-29T02:28:16.875Z,22.00
2018-08-29T02:28:49.053Z,22.00
2018-08-29T02:29:21.406Z,22.00
2018-08-29T02:29:53.514Z,22.00
2018-08-29T02:30:25.637Z,22.00
2018-08-29T02:30:57.743Z,22.00
2018-08-29T02:31:29.860Z,22.00
2018-08-29T02:32:02.083Z,22.00
2018-08-29T02:32:34.230Z,22.10
2018-08-29T02:33:06.395Z,22.10
2018-08-29T02:33:38.579Z,22.10
2018-08-29T02:34:10.695Z,22.10
2018-08-29T02:34:42.993Z,22.10
2018-08-29T02:35:15.098Z,22.10
2018-08-29T02:35:47.219Z,22.10
2018-08-29T02:36:19.396Z,22.10
2018-08-29T02:36:51.618Z,22.10
2018-08-29T02:37:23.756Z,22.00
2018-08-29T02:37:55.806Z,22.10
2018-08-29T02:38:28.031Z,22.00
2018-08-29T02:39:00.282Z,22.00
2018-08-29T02:39:32.490Z,22.10
2018-08-29T02:40:04.591Z,22.10
2018-08-29T02:40:36.733Z,22.10
2018-08-29T02:41:08.897Z,22.10
2018-08-29T02:41:41.045Z,22.10
2018-08-29T02:42:13.137Z,22.10
2018-08-29T02:42:45.260Z,22.00
2018-08-29T02:43:17.363Z,22.10
2018-08-29T02:43:49.457Z,22.10
2018-08-29T02:44:21.534Z,22.10
2018-08-29T02:44:53.871Z,22.10
2018-08-29T02:45:26.068Z,22.20
2018-08-29T02:45:58.118Z,22.20
2018-08-29T02:46:30.341Z,22.20
2018-08-29T02:47:02.413Z,22.20
2018-08-29T02:47:34.545Z,22.20
2018-08-29T02:48:06.802Z,22.20
2018-08-29T02:48:39.054Z,22.20
2018-08-29T02:49:11.177Z,22.20
2018-08-29T02:49:43.354Z,22.20
2018-08-29T02:50:15.557Z,22.20
2018-08-29T02:50:47.673Z,22.20
2018-08-29T02:51:19.837Z,22.20
2018-08-29T02:51:52.079Z,22.20
2018-08-29T02:52:24.404Z,22.10
2018-08-29T02:52:56.642Z,22.10
2018-08-29T02:53:28.813Z,22.10
2018-08-29T02:54:01.104Z,22.10
2018-08-29T02:54:33.364Z,22.00
2018-08-29T02:55:05.518Z,22.00
2018-08-29T02:55:37.595Z,22.00
2018-08-29T02:56:09.707Z,22.00
2018-08-29T02:56:41.888Z,21.90
2018-08-29T02:57:14.030Z,21.90
2018-08-29T02:57:46.106Z,21.80
2018-08-29T02:58:18.213Z,21.80
2018-08-29T02:58:50.347Z,21.80
2018-08-29T02:59:22.523Z,21.80
2018-08-29T02:59:54.629Z,21.80
2018-08-29T03:00:26.746Z,21.90
2018-08-29T03:00:58.838Z,21.90
2018-08-29T03:01:30.942Z,22.00
2018-08-29T03:02:03.021Z,22.00
2018-08-29T03:02:35.122Z,22.00
2018-08-29T03:03:07.210Z,22.00
2018-08-29T03:03:39.517Z,22.10
2018-08-29T03:04:11.608Z,22.10
2018-08-29T03:04:43.691Z,22.10
2018-08-29T03:05:15.797Z,22.10
2018-08-29T03:05:47.983Z,22.10
2018-08-29T03:06:20.101Z,22.10
2018-08-29T03:06:52.334Z,22.10
2018-08-29T03:07:24.549Z,22.10
2018-08-29T03:07:56.816Z,22.10
2018-08-29T03:08:29.100Z,22.10
2018-08-29T03:09:01.314Z,22.10
2018-08-29T03:09:33.565Z,22.10
2018-08-29T03:10:05.769Z,22.10
2018-08-29T03:10:37.886Z,22.00
2018-08-29T03:11:10.011Z,22.10
2018-08-29T03:11:42.132Z,22.20
2018-08-29T03:12:14.219Z,22.20
2018-08-29T03:12:46.293Z,22.20
2018-08-29T03:13:18.414Z,22.20
2018-08-29T03:13:50.516Z,22.30
2018-08-29T03:14:22.691Z,22.50
2018-08-29T03:14:54.910Z,22.60
2018-08-29T03:15:26.985Z,22.70
2018-08-29T03:15:59.188Z,22.80
2018-08-29T03:16:31.300Z,22.80
2018-08-29T03:17:03.409Z,22.70
2018-08-29T03:17:35.705Z,22.60
2018-08-29T03:18:07.801Z,22.60
2018-08-29T03:18:39.883Z,22.50
2018-08-29T03:19:11.999Z,22.40
2018-08-29T03:19:44.538Z,22.40
2018-08-29T03:20:16.594Z,22.40
2018-08-29T03:20:48.683Z,22.30
2018-08-29T03:21:20.770Z,22.30
2018-08-29T03:21:52.833Z,22.30
2018-08-29T03:22:24.949Z,22.40
2018-08-29T03:22:57.155Z,22.40
2018-08-29T03:23:29.347Z,22.60
2018-08-29T03:24:01.439Z,22.70
2018-08-29T03:24:33.485Z,22.80
2018-08-29T03:25:42.095Z,22.90
2018-08-29T03:26:14.169Z,23.00
2018-08-29T03:26:46.258Z,23.00
2018-08-29T03:27:18.378Z,22.90
2018-08-29T03:27:50.441Z,22.80
2018-08-29T03:28:22.661Z,22.60
2018-08-29T03:28:54.782Z,22.60
2018-08-29T03:29:27.161Z,22.60
2018-08-29T03:29:59.277Z,22.50
2018-08-29T03:30:31.415Z,22.40
2018-08-29T03:31:03.974Z,22.30
2018-08-29T03:31:36.068Z,22.30
2018-08-29T03:32:08.189Z,22.30
2018-08-29T03:32:40.333Z,22.20
2018-08-29T03:33:12.793Z,22.10
2018-08-29T03:33:44.893Z,22.00
2018-08-29T03:34:17.204Z,22.00
2018-08-29T03:34:49.288Z,21.90
2018-08-29T03:35:21.389Z,21.90
2018-08-29T03:35:53.496Z,21.80
2018-08-29T03:36:25.673Z,21.80
2018-08-29T03:36:57.766Z,21.80
2018-08-29T03:37:29.888Z,21.70
2018-08-29T03:38:01.949Z,21.70
2018-08-29T03:38:34.037Z,21.60
2018-08-29T03:39:06.185Z,21.70
2018-08-29T03:39:38.296Z,21.60
2018-08-29T03:40:10.409Z,21.60
2018-08-29T03:40:42.520Z,21.70
2018-08-29T03:41:14.652Z,21.70
2018-08-29T03:41:46.768Z,21.70
2018-08-29T03:42:18.831Z,21.80
2018-08-29T03:42:51.066Z,21.80
2018-08-29T03:43:23.150Z,21.90
2018-08-29T03:43:55.359Z,21.90
2018-08-29T03:44:27.483Z,21.90
2018-08-29T03:44:59.567Z,21.90
2018-08-29T03:45:31.785Z,22.00
2018-08-29T03:46:03.915Z,22.00
2018-08-29T03:46:35.987Z,22.00
2018-08-29T03:47:08.249Z,22.00
2018-08-29T03:47:40.499Z,22.00
2018-08-29T03:48:12.597Z,22.10
2018-08-29T03:48:45.048Z,22.10
2018-08-29T03:49:17.269Z,22.10
2018-08-29T03:49:49.431Z,22.10
2018-08-29T03:50:21.515Z,22.20
2018-08-29T03:50:53.815Z,22.20
2018-08-29T03:51:25.945Z,22.40
2018-08-29T03:51:58.109Z,22.50
2018-08-29T03:52:30.282Z,22.60
2018-08-29T03:53:02.389Z,22.60
2018-08-29T03:53:34.543Z,22.60
2018-08-29T03:54:06.792Z,22.50
2018-08-29T03:54:39.034Z,22.40
2018-08-29T03:55:11.166Z,22.30
2018-08-29T03:55:43.219Z,22.30
2018-08-29T03:56:15.333Z,22.20
2018-08-29T03:56:47.537Z,22.20
2018-08-29T03:57:19.643Z,22.20
2018-08-29T03:57:51.801Z,22.20
2018-08-29T03:58:23.942Z,22.20
2018-08-29T03:58:56.074Z,22.10
2018-08-29T03:59:28.170Z,22.10
2018-08-29T04:00:00.245Z,22.10
2018-08-29T04:00:32.496Z,22.10
2018-08-29T04:01:04.697Z,22.10
2018-08-29T04:01:36.771Z,22.10
2018-08-29T04:02:08.966Z,22.10
2018-08-29T04:02:41.263Z,22.10
2018-08-29T04:03:13.526Z,22.10
2018-08-29T04:03:45.605Z,22.10
2018-08-29T04:04:17.731Z,22.10
2018-08-29T04:04:49.834Z,22.10
2018-08-29T04:05:21.989Z,22.20
2018-08-29T04:05:54.090Z,22.30
2018-08-29T04:06:26.265Z,22.50
2018-08-29T04:06:58.365Z,22.60
2018-08-29T04:07:30.480Z,22.70
2018-08-29T04:08:02.604Z,22.80
2018-08-29T04:08:34.724Z,22.70
2018-08-29T04:09:06.878Z,22.60
2018-08-29T04:09:38.929Z,22.50
2018-08-29T04:10:11.085Z,22.40
2018-08-29T04:10:43.195Z,22.40
2018-08-29T04:11:15.482Z,22.30
2018-08-29T04:11:47.637Z,22.20
2018-08-29T04:12:19.743Z,22.20
2018-08-29T04:12:51.948Z,22.20
2018-08-29T04:13:24.034Z,22.20
2018-08-29T04:13:56.138Z,22.20
2018-08-29T04:14:28.209Z,22.20
2018-08-29T04:15:00.301Z,22.20
2018-08-29T04:15:32.407Z,22.30
2018-08-29T04:16:04.601Z,22.30
2018-08-29T04:16:36.926Z,22.30
2018-08-29T04:17:09.175Z,22.30
2018-08-29T04:17:41.244Z,22.30
2018-08-29T04:18:13.401Z,22.20
2018-08-29T04:18:45.487Z,22.20
2018-08-29T04:19:17.690Z,22.20
2018-08-29T04:19:50.113Z,22.20
2018-08-29T04:20:22.514Z,22.20
2018-08-29T04:20:54.641Z,22.10
2018-08-29T04:21:26.745Z,22.10
2018-08-29T04:21:58.984Z,22.10
2018-08-29T04:22:31.063Z,22.10
2018-08-29T04:23:03.420Z,22.00
2018-08-29T04:23:35.524Z,22.10
2018-08-29T04:24:07.641Z,22.00
2018-08-29T04:24:39.750Z,22.00
2018-08-29T04:25:11.970Z,22.00
2018-08-29T04:25:44.060Z,22.00
2018-08-29T04:26:16.208Z,22.00
2018-08-29T04:26:48.313Z,22.00
2018-08-29T04:27:20.447Z,22.00
2018-08-29T04:27:52.571Z,22.00
2018-08-29T04:28:24.820Z,22.00
2018-08-29T04:28:56.909Z,21.90
2018-08-29T04:29:29.038Z,21.90
2018-08-29T04:30:01.424Z,21.90
2018-08-29T04:30:33.581Z,21.90
2018-08-29T04:31:05.942Z,21.90
2018-08-29T04:31:38.025Z,22.00
2018-08-29T04:32:10.115Z,22.00
2018-08-29T04:32:42.197Z,22.00
2018-08-29T04:33:14.291Z,21.90
2018-08-29T04:33:46.502Z,22.00
2018-08-29T04:34:18.662Z,22.00
2018-08-29T04:34:50.722Z,21.50
2018-08-29T04:35:22.834Z,21.10
2018-08-29T04:35:55.016Z,20.80
2018-08-29T04:36:27.170Z,20.50
2018-08-29T04:36:59.229Z,20.30
2018-08-29T04:37:31.329Z,20.10
2018-08-29T04:38:03.399Z,20.00
2018-08-29T04:38:35.503Z,19.90
2018-08-29T04:39:07.630Z,19.90
2018-08-29T04:39:39.734Z,19.80
2018-08-29T04:40:11.842Z,19.70
2018-08-29T04:40:43.952Z,19.60
2018-08-29T04:41:16.036Z,19.60
2018-08-29T04:41:48.296Z,19.60
2018-08-29T04:42:20.363Z,19.50
2018-08-29T04:42:52.600Z,19.40
2018-08-29T04:43:24.732Z,19.40
2018-08-29T04:43:57.030Z,19.40
2018-08-29T04:44:29.090Z,19.30
2018-08-29T04:45:01.272Z,19.30
2018-08-29T04:45:33.544Z,19.40
2018-08-29T04:46:05.630Z,19.30
2018-08-29T04:46:37.707Z,19.20
2018-08-29T04:47:09.799Z,19.10
2018-08-29T04:47:41.909Z,19.10
2018-08-29T04:48:14.006Z,19.10
2018-08-29T04:48:46.113Z,19.10
2018-08-29T04:49:18.300Z,19.20
2018-08-29T04:49:50.360Z,19.10
2018-08-29T04:50:22.483Z,19.10
2018-08-29T04:50:54.546Z,19.20
2018-08-29T04:51:26.685Z,19.20
2018-08-29T04:51:58.970Z,19.10
2018-08-29T04:52:31.104Z,19.10
2018-08-29T04:53:03.185Z,19.00
2018-08-29T04:53:35.333Z,19.10
2018-08-29T04:54:07.549Z,19.10
2018-08-29T04:54:39.592Z,19.10
2018-08-29T04:55:11.704Z,19.10
2018-08-29T04:55:43.924Z,19.10
2018-08-29T04:56:54.376Z,19.30
2018-08-29T04:57:26.521Z,19.50
2018-08-29T04:57:58.744Z,19.60
2018-08-29T04:58:30.852Z,19.60
2018-08-29T04:59:03.065Z,19.60
2018-08-29T04:59:35.158Z,19.50
2018-08-29T05:00:07.223Z,19.40
2018-08-29T05:00:39.295Z,19.40
2018-08-29T05:01:11.521Z,19.30
2018-08-29T05:01:43.617Z,19.30
2018-08-29T05:02:15.709Z,19.20
2018-08-29T05:02:47.809Z,19.30
2018-08-29T05:03:20.197Z,19.30
2018-08-29T05:03:52.406Z,19.40
2018-08-29T05:04:24.565Z,19.40
2018-08-29T05:04:56.698Z,19.40
2018-08-29T05:05:28.957Z,19.40
2018-08-29T05:06:01.106Z,19.40
2018-08-29T05:06:33.180Z,19.70
2018-08-29T05:07:05.451Z,19.90
2018-08-29T05:07:37.841Z,20.20
2018-08-29T05:08:10.017Z,20.30
2018-08-29T05:08:42.202Z,20.50
2018-08-29T05:09:14.301Z,20.60
2018-08-29T05:09:46.437Z,20.70
2018-08-29T05:10:18.566Z,20.80
2018-08-29T05:10:50.888Z,20.90
2018-08-29T05:11:23.106Z,21.00
2018-08-29T05:11:55.256Z,21.10
2018-08-29T05:12:27.356Z,21.10
2018-08-29T05:12:59.468Z,21.20
2018-08-29T05:13:31.634Z,21.30
2018-08-29T05:14:03.709Z,21.30
2018-08-29T05:14:35.857Z,21.30
2018-08-29T05:15:07.989Z,21.30
2018-08-29T05:15:40.198Z,21.30
2018-08-29T05:16:12.308Z,21.30
2018-08-29T05:16:44.381Z,21.30
2018-08-29T05:17:16.539Z,21.40
2018-08-29T05:17:48.605Z,21.40
2018-08-29T05:18:20.953Z,21.40
2018-08-29T05:18:53.175Z,21.50
2018-08-29T05:19:25.349Z,21.50
2018-08-29T05:19:57.421Z,21.50
2018-08-29T05:20:29.661Z,21.50
2018-08-29T05:21:01.723Z,21.50
2018-08-29T05:21:33.889Z,21.50
2018-08-29T05:22:05.985Z,21.50
2018-08-29T05:22:38.081Z,21.50
2018-08-29T05:23:10.289Z,21.40
2018-08-29T05:23:42.394Z,21.40
2018-08-29T05:24:14.669Z,21.40
2018-08-29T05:24:46.876Z,21.40
2018-08-29T05:25:19.049Z,21.40
2018-08-29T05:25:51.311Z,21.50
2018-08-29T05:26:23.371Z,21.50
2018-08-29T05:26:55.489Z,21.50
2018-08-29T05:27:27.566Z,21.50
2018-08-29T05:27:59.690Z,21.50
2018-08-29T05:28:31.816Z,21.50
2018-08-29T05:29:03.980Z,21.50
2018-08-29T05:29:36.288Z,21.50
2018-08-29T05:30:08.346Z,21.50
2018-08-29T05:30:40.561Z,21.50
2018-08-29T05:31:12.653Z,21.50
2018-08-29T05:31:44.804Z,21.50
2018-08-29T05:32:16.923Z,21.50
2018-08-29T05:32:49.016Z,21.40
2018-08-29T05:33:21.257Z,21.40
2018-08-29T05:33:53.329Z,21.40
2018-08-29T05:34:25.561Z,21.40
2018-08-29T05:34:57.823Z,21.50
2018-08-29T05:35:29.874Z,21.50
2018-08-29T05:36:02.092Z,21.50
2018-08-29T05:36:34.217Z,21.50
2018-08-29T05:37:06.332Z,21.50
2018-08-29T05:37:38.405Z,21.50
2018-08-29T05:38:10.500Z,21.60
2018-08-29T05:38:42.621Z,21.60
2018-08-29T05:39:14.701Z,21.60
2018-08-29T05:39:46.814Z,21.60
2018-08-29T05:40:18.921Z,21.60
2018-08-29T05:40:51.001Z,21.70
2018-08-29T05:41:23.136Z,21.70
2018-08-29T05:41:55.412Z,21.80
2018-08-29T05:42:27.675Z,21.80
2018-08-29T05:43:00.028Z,21.80
2018-08-29T05:43:32.310Z,21.80
2018-08-29T05:44:04.648Z,21.70
2018-08-29T05:44:36.781Z,21.80
2018-08-29T05:45:08.849Z,21.80
2018-08-29T05:45:41.011Z,21.80
2018-08-29T05:46:13.150Z,21.80
2018-08-29T05:46:45.261Z,21.80
2018-08-29T05:47:17.624Z,21.80
2018-08-29T05:47:49.732Z,21.80
2018-08-29T05:48:22.080Z,21.80
2018-08-29T05:48:54.260Z,21.80
2018-08-29T05:49:26.473Z,21.80
2018-08-29T05:49:58.550Z,21.80
2018-08-29T05:50:30.640Z,21.80
2018-08-29T05:51:02.728Z,21.80
2018-08-29T05:51:34.836Z,21.80
2018-08-29T05:52:06.925Z,21.80
2018-08-29T05:52:39.042Z,21.80
2018-08-29T05:53:11.125Z,21.80
2018-08-29T05:53:43.229Z,21.80
2018-08-29T05:54:15.345Z,21.80
2018-08-29T05:54:47.418Z,21.80
2018-08-29T05:55:19.678Z,21.80
2018-08-29T05:55:51.738Z,21.90
2018-08-29T05:56:23.939Z,21.90
2018-08-29T05:56:56.203Z,21.90
2018-08-29T05:57:28.431Z,21.90
2018-08-29T05:58:00.510Z,21.90
2018-08-29T05:58:32.620Z,21.90
2018-08-29T05:59:04.877Z,21.90
2018-08-29T05:59:36.998Z,22.00
2018-08-29T06:00:09.117Z,21.90
2018-08-29T06:00:41.254Z,21.90
2018-08-29T06:01:13.376Z,21.90
2018-08-29T06:01:45.662Z,21.90
2018-08-29T06:02:17.920Z,21.90
2018-08-29T06:02:50.275Z,21.90
2018-08-29T06:03:22.346Z,21.90
2018-08-29T06:03:54.533Z,21.90
2018-08-29T06:04:26.645Z,21.90
2018-08-29T06:04:58.724Z,21.90
2018-08-29T06:05:30.849Z,21.90
2018-08-29T06:06:02.944Z,21.90
2018-08-29T06:06:35.111Z,21.80
2018-08-29T06:07:07.245Z,21.80
2018-08-29T06:07:39.333Z,21.80
2018-08-29T06:08:11.461Z,21.80
2018-08-29T06:08:43.626Z,21.80
2018-08-29T06:09:16.028Z,21.70
2018-08-29T06:09:48.162Z,21.70
2018-08-29T06:10:20.309Z,21.70
2018-08-29T06:10:52.420Z,21.70
2018-08-29T06:11:24.600Z,21.60
2018-08-29T06:11:56.789Z,21.60
2018-08-29T06:12:28.876Z,21.60
2018-08-29T06:13:01.031Z,21.60
2018-08-29T06:13:33.125Z,21.60
2018-08-29T06:14:05.186Z,21.60
2018-08-29T06:14:37.320Z,21.60
2018-08-29T06:15:09.518Z,21.60
2018-08-29T06:15:41.724Z,21.60
2018-08-29T06:16:13.919Z,21.60
2018-08-29T06:16:46.280Z,21.60
2018-08-29T06:17:18.497Z,21.60
2018-08-29T06:17:50.659Z,21.60
2018-08-29T06:18:23.016Z,21.60
2018-08-29T06:18:55.206Z,21.60
2018-08-29T06:19:27.423Z,21.60
2018-08-29T06:19:59.928Z,21.60
2018-08-29T06:20:32.170Z,21.60
2018-08-29T06:21:04.265Z,21.50
2018-08-29T06:21:36.410Z,21.60
2018-08-29T06:22:08.703Z,21.50
2018-08-29T06:22:41.162Z,21.60
2018-08-29T06:23:13.262Z,21.60
2018-08-29T06:23:45.465Z,21.60
2018-08-29T06:24:17.589Z,21.60
2018-08-29T06:24:49.671Z,21.60
2018-08-29T06:25:21.778Z,21.60
2018-08-29T06:25:54.026Z,21.60
2018-08-29T06:26:26.249Z,21.60
2018-08-29T06:26:58.652Z,21.60
2018-08-29T06:27:30.661Z,21.60
2018-08-29T06:28:02.895Z,21.70
2018-08-29T06:28:35.208Z,21.60
2018-08-29T06:29:07.291Z,21.60
2018-08-29T06:29:39.398Z,21.70
2018-08-29T06:30:11.629Z,21.60
2018-08-29T06:30:43.763Z,21.60
2018-08-29T06:31:15.933Z,21.60
2018-08-29T06:31:48.133Z,21.60
2018-08-29T06:32:20.297Z,21.60
2018-08-29T06:32:52.441Z,21.60
2018-08-29T06:33:24.509Z,21.60
2018-08-29T06:33:56.719Z,21.60
2018-08-29T06:34:28.828Z,21.60
2018-08-29T06:35:01.094Z,21.60
2018-08-29T06:35:33.204Z,21.70
2018-08-29T06:36:05.344Z,21.70
2018-08-29T06:36:37.645Z,21.70
2018-08-29T06:37:09.735Z,21.70
2018-08-29T06:37:41.849Z,21.60
2018-08-29T06:38:13.963Z,21.60
2018-08-29T06:38:46.054Z,21.70
2018-08-29T06:39:18.160Z,21.60
2018-08-29T06:39:50.282Z,21.60
2018-08-29T06:40:22.356Z,21.60
2018-08-29T06:40:54.465Z,21.70
2018-08-29T06:41:26.838Z,21.70
2018-08-29T06:41:58.908Z,21.70
2018-08-29T06:42:31.171Z,21.70
2018-08-29T06:43:03.360Z,21.70
2018-08-29T06:43:35.460Z,21.70
2018-08-29T06:44:07.626Z,21.70
2018-08-29T06:44:39.830Z,21.60
2018-08-29T06:45:12.044Z,21.70
2018-08-29T06:45:44.228Z,21.70
2018-08-29T06:46:16.707Z,21.60
2018-08-29T06:46:48.830Z,21.60
2018-08-29T06:47:20.923Z,21.60
2018-08-29T06:47:53.151Z,21.70
2018-08-29T06:48:25.265Z,21.80
2018-08-29T06:48:57.377Z,21.80
2018-08-29T06:49:29.481Z,21.90
2018-08-29T06:50:01.605Z,22.00
2018-08-29T06:50:33.830Z,22.00
2018-08-29T06:51:05.985Z,22.00
2018-08-29T06:51:38.180Z,22.00
2018-08-29T06:52:10.498Z,22.00
2018-08-29T06:52:42.581Z,22.00
2018-08-29T06:53:15.320Z,22.00
2018-08-29T06:53:47.427Z,22.00
2018-08-29T06:54:19.682Z,22.00
2018-08-29T06:54:51.775Z,22.10
2018-08-29T06:55:24.061Z,22.20